Mundo Novo, Brazil
Current Conditions -  °F | °C
As of 6:00 PM on Saturday 25 Oct 2014 (Local Time) from SBSV Reporting Station
Scattered Clouds Scattered Clouds  
Wind Chill: 79°   Ceiling: Unl
Heat Index: 81°   Visibility: 6mi
Dew Point: 68°   Wind: 10mph
Humidity: 69%   Direction: 60°ENE
Pressure: 29.91"   Gusts: NA
Location:  11.86°S, 40.47°W
Report Text: SBSV 252100Z 06009KT 9999 SCT017 26/20 Q1013
Loading
Personal Weather Stations






























Interactive Weather Map
Tropical Storm Tracking
New forecast layout! Learn more

10-Day Weather Forecast

Advertisements
Track Severe Weather on mobile